Ridgeway, WV (25440)

3:27 AM EDT en Abril 21, 2018 (GMT -0400)
Baker Estates | | Change Station
Aviso en curso: Freeze Warning

Alt 577 ft 39.29 °N, 78.05 °W | Updated 45 seconds ago

Despejado
Despejado
33.7 ° F
Sensación térmica 34 ° F
N
0.0
Viento Variable Viento desde Norte
Gusts 1.0 mph

Hoy
Alta -- | Baja -- ° F
--% Posibilidad de precipitaciones
Ayer
Alta -- | Baja -- ° F
Precip. -- pul
Presión 30.43 pul
Visibilidad 10.0 Millas
Nubes Despejado
Vientos helados 34 ° F
Punto de rocío 25 ° F
Humedad 71%
Precipitaciones 0.00 pul
Espesor de la nieve No disponible.
6:26 AM 7:55 PM
Creciente, 32% visible
METAR KMRB 210653Z AUTO 02004KT 10SM CLR 05/M04 A3042 RMK AO2 SLP303 T00501044
Presión 30.43 pul
Visibilidad 10.0 Millas
Nubes Despejado
Vientos helados 34 ° F
Punto de rocío 25 ° F
Humedad 71%
Precipitaciones 0.00 pul
Espesor de la nieve No disponible.
6:26 AM 7:55 PM
Creciente, 32% visible
METAR KMRB 210653Z AUTO 02004KT 10SM CLR 05/M04 A3042 RMK AO2 SLP303 T00501044

Get Your Daily Forecast Email!

Thanks for signing up!

Be on the lookout for a verification email in your inbox.

You'll start receiving severe weather alerts in your inbox..

×

10-Day Weather Forecast

Almanac

Astronomía

Apr. 21, 2018 Salida Puesta
Hora real
Crepúsculo civil
Crepúsculo náutico
Crepúsculo astronómico
Luna
Horas de luz
Horas de luz
Tomorrow will be .
, % of the Moon is Illuminated

Extremos de hoy

Máximos del estado Bajos del estado

Community

WunderPhotos

Category 6

Welcome to Category 6. This is the collective home for Weather Underground's featured writeups by Dr. Jeff Masters (right), Bob Henson (left), Chris Burt, and other regular contributors.

Nearby

Calidad del aire

  Calidad del aire Índice AQ Contaminante
Not available.

Grosos de nieve

Estación Profundido Altura

Actividad de terremotos

Ciudad Distance Mag. Tiempo y dato
Magnitud mínima muestra es 2,5.

Temperaturas de aguas costeras

Lugar Temperatura

Stations

Estaciones meteorológicas cercanas

Ubicación de la estación Temp. Vientos helados Punto de rocío Humedad Viento Precip. Alt Actualizado Tipo
                   

Watches & Warnings

Freeze Warning
Issued: 10:14 PM EDT Apr. 20, 2018 – National Weather Service

... Freeze warning remains in effect from 2 am to 9 am EDT
Saturday...

* temperatures... in the upper 20s and lower 30s.

* Impacts... frost and freeze conditions may damage sensitive
vegetation. Take steps now to protect tender plants from the
cold.

Precautionary/preparedness actions...

A freeze warning means sub-freezing temperatures are imminent or
highly likely. These conditions will kill crops and other
sensitive vegetation.